< < Back
Terminal Aerodrome Forecast


Current Version              Previous Versions:   1  2  3  4  5  6  7  8  9  

Terminal Aerodrome Forecast

570
FTUS44 KOHX 270500
TAFCSV
TAF
KCSV 270523Z 2706/2806 17007KT P6SM BKN007 OVC011
     FM270800 22003KT 3SM BR SCT004 OVC007
      TEMPO 2710/2714 1SM BR BKN004 OVC007
     FM271600 23006KT P6SM SCT040 BKN250=

Latest METAR

292
SAUS70 KWBC 271800 RRD
MTRCSV
METAR KCSV 271753Z AUTO 25004KT 10SM FEW037 25/16 A3025 RMK AO2 SLP223
T02500156 10250 20183 58003


USA.gov is the U.S. government's official web portal to all federal, state and local government web resources and services.